createdAt,value
2018-12-19T00:00:27.605Z,8.37
2018-12-19T00:02:56.083Z,5.23
2018-12-19T00:05:24.570Z,4.37
2018-12-19T00:07:53.076Z,7.00
2018-12-19T00:10:21.577Z,8.47
2018-12-19T00:12:50.066Z,9.00
2018-12-19T00:15:18.539Z,9.40
2018-12-19T00:17:47.244Z,10.90
2018-12-19T00:20:15.770Z,11.00
2018-12-19T00:22:44.253Z,11.80
2018-12-19T00:25:12.963Z,10.73
2018-12-19T00:27:41.626Z,8.80
2018-12-19T00:30:10.198Z,4.00
2018-12-19T00:32:38.922Z,4.10
2018-12-19T00:35:07.485Z,4.03
2018-12-19T00:37:35.985Z,3.90
2018-12-19T00:40:04.627Z,4.03
2018-12-19T00:42:33.047Z,4.03
2018-12-19T00:45:01.606Z,5.03
2018-12-19T00:47:30.085Z,5.67
2018-12-19T00:49:58.559Z,9.17
2018-12-19T00:52:27.054Z,8.53
2018-12-19T00:54:55.552Z,4.07
2018-12-19T00:57:24.304Z,3.27
2018-12-19T00:59:52.776Z,3.60
2018-12-19T01:02:21.241Z,4.10
2018-12-19T01:04:49.801Z,3.13
2018-12-19T01:07:18.298Z,3.40
2018-12-19T01:09:46.774Z,2.83
2018-12-19T01:12:15.234Z,3.17
2018-12-19T01:14:43.709Z,3.70
2018-12-19T01:17:12.370Z,3.33
2018-12-19T01:19:40.864Z,3.33
2018-12-19T01:22:09.431Z,3.20
2018-12-19T01:24:37.937Z,3.00
2018-12-19T01:27:06.406Z,3.33
2018-12-19T01:29:34.895Z,3.37
2018-12-19T01:32:03.380Z,3.40
2018-12-19T01:34:31.894Z,2.93
2018-12-19T01:37:00.330Z,2.77
2018-12-19T01:39:28.823Z,3.07
2018-12-19T01:41:57.297Z,2.60
2018-12-19T01:44:25.767Z,2.87
2018-12-19T01:46:54.247Z,2.33
2018-12-19T01:49:22.751Z,2.90
2018-12-19T01:51:51.199Z,2.07
2018-12-19T01:54:19.690Z,2.90
2018-12-19T01:56:48.166Z,2.17
2018-12-19T01:59:16.649Z,2.77
2018-12-19T02:01:45.127Z,2.93
2018-12-19T02:04:13.614Z,2.80
2018-12-19T02:06:42.145Z,2.23
2018-12-19T02:09:10.727Z,2.47
2018-12-19T02:11:39.167Z,2.17
2018-12-19T02:14:07.614Z,2.23
2018-12-19T02:16:36.091Z,1.93
2018-12-19T02:19:04.537Z,2.27
2018-12-19T02:21:33.069Z,2.40
2018-12-19T02:24:01.617Z,1.47
2018-12-19T02:26:30.097Z,2.10
2018-12-19T02:28:58.598Z,1.70
2018-12-19T02:31:27.147Z,2.40
2018-12-19T02:33:55.775Z,3.97
2018-12-19T02:36:24.258Z,2.00
2018-12-19T02:38:52.733Z,1.70
2018-12-19T02:41:21.202Z,1.33
2018-12-19T02:43:49.696Z,1.70
2018-12-19T02:46:18.239Z,1.57
2018-12-19T02:48:46.756Z,1.23
2018-12-19T02:51:15.239Z,1.43
2018-12-19T02:53:43.718Z,1.43
2018-12-19T02:56:12.213Z,1.60
2018-12-19T02:58:40.677Z,1.50
2018-12-19T03:01:09.238Z,1.30
2018-12-19T03:03:38.058Z,1.03
2018-12-19T03:06:06.840Z,0.80
2018-12-19T03:08:35.699Z,0.70
2018-12-19T03:11:04.555Z,1.23
2018-12-19T03:13:33.844Z,1.10
2018-12-19T03:16:02.627Z,0.97
2018-12-19T03:18:31.410Z,1.20
2018-12-19T03:21:00.215Z,1.60
2018-12-19T03:23:29.094Z,1.57
2018-12-19T03:25:58.087Z,1.40
2018-12-19T03:28:26.864Z,1.63
2018-12-19T03:30:55.654Z,1.17
2018-12-19T03:33:24.515Z,1.73
2018-12-19T03:35:53.307Z,1.47
2018-12-19T03:38:24.126Z,1.67
2018-12-19T03:40:52.672Z,1.80
2018-12-19T03:43:21.137Z,1.57
2018-12-19T03:45:49.594Z,1.00
2018-12-19T03:49:21.141Z,1.30
2018-12-19T03:51:49.763Z,1.10
2018-12-19T03:54:18.695Z,1.47
2018-12-19T03:56:47.638Z,1.47
2018-12-19T03:59:16.101Z,1.20
2018-12-19T04:01:44.610Z,1.20
2018-12-19T04:04:13.410Z,1.33
2018-12-19T04:06:41.887Z,1.20
2018-12-19T04:09:10.366Z,1.37
2018-12-19T04:11:38.837Z,1.53
2018-12-19T04:14:07.359Z,2.10
2018-12-19T04:16:35.807Z,1.33
2018-12-19T04:19:04.271Z,1.27
2018-12-19T04:21:32.899Z,1.10
2018-12-19T04:24:01.353Z,1.57
2018-12-19T04:26:29.811Z,1.37
2018-12-19T04:28:58.278Z,1.17
2018-12-19T04:31:26.726Z,1.07
2018-12-19T04:33:55.181Z,1.10
2018-12-19T04:36:23.645Z,1.20
2018-12-19T04:38:52.153Z,1.20
2018-12-19T04:41:20.784Z,1.37
2018-12-19T04:43:49.254Z,1.33
2018-12-19T04:46:17.712Z,1.10
2018-12-19T04:48:46.477Z,1.40
2018-12-19T04:51:14.955Z,1.40
2018-12-19T04:53:43.433Z,1.17
2018-12-19T04:56:11.886Z,1.50
2018-12-19T04:58:40.341Z,1.50
2018-12-19T05:01:08.798Z,1.80
2018-12-19T05:03:37.457Z,1.30
2018-12-19T05:06:05.901Z,1.57
2018-12-19T05:08:34.386Z,1.70
2018-12-19T05:11:02.832Z,1.70
2018-12-19T05:13:31.310Z,1.67
2018-12-19T05:15:59.773Z,2.27
2018-12-19T05:18:28.238Z,1.83
2018-12-19T05:20:57.041Z,1.97
2018-12-19T05:23:25.495Z,1.37
2018-12-19T05:25:53.981Z,1.63
2018-12-19T05:28:22.788Z,1.63
2018-12-19T05:30:51.249Z,1.37
2018-12-19T05:33:19.701Z,1.50
2018-12-19T05:35:48.387Z,1.60
2018-12-19T05:38:16.901Z,2.17
2018-12-19T05:40:45.362Z,1.60
2018-12-19T05:43:13.847Z,1.73
2018-12-19T05:45:42.302Z,1.30
2018-12-19T05:48:10.764Z,2.03
2018-12-19T05:50:39.532Z,1.80
2018-12-19T05:53:08.078Z,1.40
2018-12-19T05:55:36.615Z,1.40
2018-12-19T05:58:05.156Z,1.40
2018-12-19T06:00:33.907Z,1.70
2018-12-19T06:03:02.947Z,1.73
2018-12-19T06:05:31.744Z,1.40
2018-12-19T06:08:00.567Z,1.90
2018-12-19T06:10:29.577Z,1.90
2018-12-19T06:12:58.401Z,1.70
2018-12-19T06:15:27.214Z,1.77
2018-12-19T06:17:56.071Z,1.73
2018-12-19T06:20:24.844Z,2.03
2018-12-19T06:22:53.672Z,1.97
2018-12-19T06:25:22.487Z,1.80
2018-12-19T06:27:51.383Z,1.60
2018-12-19T06:30:20.385Z,2.07
2018-12-19T06:32:49.271Z,1.77
2018-12-19T06:35:18.124Z,2.03
2018-12-19T06:37:47.313Z,2.13
2018-12-19T06:40:16.141Z,1.80
2018-12-19T06:42:45.059Z,1.90
2018-12-19T06:45:14.051Z,2.00
2018-12-19T06:47:42.926Z,1.50
2018-12-19T06:50:11.706Z,2.00
2018-12-19T06:52:40.590Z,1.73
2018-12-19T06:55:09.431Z,1.60
2018-12-19T06:57:38.243Z,2.10
2018-12-19T07:00:07.645Z,1.67
2018-12-19T07:02:36.611Z,2.40
2018-12-19T07:05:05.527Z,1.87
2018-12-19T07:07:34.479Z,3.67
2018-12-19T07:10:03.461Z,2.83
2018-12-19T07:12:32.300Z,2.20
2018-12-19T07:15:01.176Z,1.57
2018-12-19T07:17:30.026Z,2.10
2018-12-19T07:19:58.626Z,2.20
2018-12-19T07:22:27.081Z,2.77
2018-12-19T07:24:55.550Z,2.00
2018-12-19T07:27:24.278Z,1.67
2018-12-19T07:29:53.143Z,2.97
2018-12-19T07:32:21.955Z,3.20
2018-12-19T07:34:50.807Z,4.30
2018-12-19T07:37:19.629Z,3.50
2018-12-19T07:39:48.418Z,2.10
2018-12-19T07:42:17.257Z,2.43
2018-12-19T07:44:46.088Z,3.30
2018-12-19T07:47:14.919Z,3.30
2018-12-19T07:49:43.742Z,3.17
2018-12-19T07:52:12.590Z,2.20
2018-12-19T07:54:41.395Z,2.77
2018-12-19T07:57:10.322Z,3.13
2018-12-19T07:59:39.261Z,2.93
2018-12-19T08:02:08.082Z,3.20
2018-12-19T08:04:37.069Z,2.10
2018-12-19T08:07:05.866Z,2.40
2018-12-19T08:09:34.666Z,2.30
2018-12-19T08:12:03.507Z,3.07
2018-12-19T08:14:32.325Z,2.13
2018-12-19T08:17:01.118Z,2.17
2018-12-19T08:19:30.058Z,1.33
2018-12-19T08:21:58.897Z,2.60
2018-12-19T08:24:27.678Z,3.03
2018-12-19T08:26:56.553Z,2.40
2018-12-19T08:29:25.371Z,1.93
2018-12-19T08:31:54.252Z,2.10
2018-12-19T08:34:23.198Z,1.90
2018-12-19T08:36:52.157Z,2.03
2018-12-19T08:39:21.271Z,1.50
2018-12-19T08:41:50.388Z,2.23
2018-12-19T08:44:19.178Z,1.80
2018-12-19T08:46:47.973Z,2.17
2018-12-19T08:49:16.842Z,2.23
2018-12-19T08:51:45.662Z,1.80
2018-12-19T08:54:14.457Z,2.33
2018-12-19T08:56:43.298Z,3.20
2018-12-19T08:59:12.116Z,2.57
2018-12-19T09:01:40.944Z,1.83
2018-12-19T09:04:09.775Z,2.10
2018-12-19T09:06:38.681Z,1.77
2018-12-19T09:09:07.650Z,2.27
2018-12-19T09:11:36.543Z,3.03
2018-12-19T09:14:05.386Z,1.73
2018-12-19T09:16:34.306Z,1.50
2018-12-19T09:19:03.100Z,1.77
2018-12-19T09:21:31.895Z,2.93
2018-12-19T09:24:00.714Z,2.40
2018-12-19T09:26:29.591Z,4.40
2018-12-19T09:28:58.377Z,2.60
2018-12-19T09:31:27.164Z,2.90
2018-12-19T09:33:55.993Z,2.90
2018-12-19T09:36:24.886Z,2.90
2018-12-19T09:38:53.685Z,2.67
2018-12-19T09:41:22.499Z,2.67
2018-12-19T09:43:51.266Z,3.50
2018-12-19T09:46:20.134Z,2.77
2018-12-19T09:48:48.965Z,3.40
2018-12-19T09:51:17.734Z,3.13
2018-12-19T09:53:47.477Z,3.77
2018-12-19T09:56:16.361Z,3.60
2018-12-19T09:58:45.274Z,3.63
2018-12-19T10:01:14.170Z,3.60
2018-12-19T10:03:42.996Z,2.90
2018-12-19T10:06:11.844Z,3.07
2018-12-19T10:08:40.643Z,3.33
2018-12-19T10:11:09.455Z,4.80
2018-12-19T10:13:38.271Z,4.43
2018-12-19T10:16:07.269Z,4.20
2018-12-19T10:18:36.219Z,5.27
2018-12-19T10:21:05.038Z,3.70
2018-12-19T10:23:39.379Z,4.60
2018-12-19T10:26:12.322Z,3.40
2018-12-19T10:28:41.244Z,3.47
2018-12-19T10:31:10.249Z,2.73
2018-12-19T10:33:39.048Z,2.50
2018-12-19T10:36:07.843Z,2.67
2018-12-19T10:38:36.652Z,2.00
2018-12-19T10:41:05.462Z,2.70
2018-12-19T10:43:34.334Z,2.87
2018-12-19T10:46:04.340Z,2.70
2018-12-19T10:48:33.182Z,4.10
2018-12-19T10:51:02.003Z,2.83
2018-12-19T10:53:30.864Z,2.87
2018-12-19T10:55:59.671Z,3.07
2018-12-19T10:58:28.499Z,2.97
2018-12-19T11:01:01.020Z,2.60
2018-12-19T11:03:29.858Z,2.60
2018-12-19T11:05:59.489Z,2.70
2018-12-19T11:08:28.290Z,2.70
2018-12-19T11:10:57.098Z,3.63
2018-12-19T11:13:26.054Z,2.60
2018-12-19T11:15:54.855Z,3.57
2018-12-19T11:18:23.697Z,4.17
2018-12-19T11:20:52.683Z,2.37
2018-12-19T11:23:21.565Z,1.90
2018-12-19T11:25:50.386Z,3.00
2018-12-19T11:28:19.381Z,2.03
2018-12-19T11:30:48.424Z,2.17
2018-12-19T11:33:17.254Z,1.33
2018-12-19T11:35:46.090Z,2.30
2018-12-19T11:38:14.873Z,3.27
2018-12-19T11:40:43.831Z,2.40
2018-12-19T11:43:12.699Z,2.10
2018-12-19T11:45:41.542Z,2.10
2018-12-19T11:48:10.361Z,1.73
2018-12-19T11:50:39.355Z,2.13
2018-12-19T11:53:08.202Z,1.83
2018-12-19T11:55:37.026Z,2.10
2018-12-19T11:58:05.867Z,1.70
2018-12-19T12:00:34.682Z,2.23
2018-12-19T12:03:03.859Z,2.10
2018-12-19T12:05:32.771Z,1.30
2018-12-19T12:08:01.650Z,1.60
2018-12-19T12:10:30.825Z,1.60
2018-12-19T12:12:59.622Z,2.23
2018-12-19T12:15:28.687Z,2.00
2018-12-19T12:17:57.538Z,3.30
2018-12-19T12:20:26.343Z,4.30
2018-12-19T12:22:55.147Z,6.67
2018-12-19T12:25:24.007Z,7.40
2018-12-19T12:27:52.848Z,5.87
2018-12-19T12:30:21.857Z,7.50
2018-12-19T12:32:50.670Z,7.30
2018-12-19T12:35:19.504Z,6.60
2018-12-19T12:37:48.347Z,5.00
2018-12-19T12:40:17.231Z,5.40
2018-12-19T12:42:46.084Z,5.73
2018-12-19T12:45:15.018Z,3.13
2018-12-19T12:47:44.009Z,3.43
2018-12-19T12:50:12.827Z,3.03
2018-12-19T12:52:41.667Z,3.97
2018-12-19T12:55:10.524Z,4.33
2018-12-19T12:57:39.352Z,7.40
2018-12-19T13:00:08.468Z,6.57
2018-12-19T13:02:37.340Z,4.83
2018-12-19T13:05:06.452Z,4.50
2018-12-19T13:07:35.243Z,4.83
2018-12-19T13:10:04.743Z,2.30
2018-12-19T13:12:33.606Z,3.57
2018-12-19T13:15:02.430Z,2.00
2018-12-19T13:17:31.256Z,2.70
2018-12-19T13:20:00.546Z,3.40
2018-12-19T13:22:29.410Z,3.90
2018-12-19T13:24:58.316Z,5.20
2018-12-19T13:27:27.269Z,4.30
2018-12-19T13:29:56.090Z,2.70
2018-12-19T13:32:25.061Z,3.20
2018-12-19T13:34:53.897Z,3.23
2018-12-19T13:37:22.698Z,3.70
2018-12-19T13:39:51.522Z,4.03
2018-12-19T13:42:20.402Z,3.70
2018-12-19T13:44:49.218Z,3.93
2018-12-19T13:47:18.176Z,3.37
2018-12-19T13:49:47.097Z,3.20
2018-12-19T13:52:15.933Z,4.10
2018-12-19T13:54:44.973Z,3.33
2018-12-19T13:57:13.827Z,3.53
2018-12-19T13:59:42.787Z,3.27
2018-12-19T14:02:11.961Z,3.60
2018-12-19T14:04:40.939Z,3.10
2018-12-19T14:07:10.039Z,3.10
2018-12-19T14:09:38.853Z,4.40
2018-12-19T14:12:12.234Z,4.67
2018-12-19T14:14:38.758Z,3.93
2018-12-19T14:17:10.953Z,3.47
2018-12-19T14:19:43.270Z,3.80
2018-12-19T14:25:11.602Z,4.50
2018-12-19T14:27:40.569Z,3.80
2018-12-19T14:30:09.692Z,3.80
2018-12-19T14:32:38.634Z,4.90
2018-12-19T14:35:07.550Z,3.27
2018-12-19T14:37:36.370Z,3.53
2018-12-19T14:40:05.546Z,3.10
2018-12-19T14:42:34.373Z,3.00
2018-12-19T14:45:03.314Z,1.90
2018-12-19T14:47:32.123Z,2.73
2018-12-19T14:50:00.974Z,2.83
2018-12-19T14:52:29.880Z,2.43
2018-12-19T14:54:58.691Z,2.80
2018-12-19T14:57:27.548Z,3.00
2018-12-19T14:59:56.342Z,3.20
2018-12-19T15:02:25.176Z,3.30
2018-12-19T15:04:53.974Z,3.47
2018-12-19T15:07:22.862Z,5.00
2018-12-19T15:09:51.763Z,4.13
2018-12-19T15:12:25.754Z,5.23
2018-12-19T15:14:51.587Z,4.13
2018-12-19T15:17:20.386Z,4.47
2018-12-19T15:19:49.262Z,6.13
2018-12-19T15:22:18.083Z,1.70
2018-12-19T15:24:47.008Z,1.90
2018-12-19T15:27:15.912Z,1.50
2018-12-19T15:29:45.124Z,1.10
2018-12-19T15:32:13.901Z,1.30
2018-12-19T15:34:42.703Z,1.10
2018-12-19T15:37:11.569Z,1.60
2018-12-19T15:39:40.612Z,1.37
2018-12-19T15:42:09.502Z,0.70
2018-12-19T15:44:38.134Z,0.43
2018-12-19T15:47:06.659Z,0.40
2018-12-19T15:49:35.133Z,0.50
2018-12-19T15:52:03.861Z,0.50
2018-12-19T15:54:32.406Z,0.70
2018-12-19T15:57:00.891Z,0.50
2018-12-19T15:59:29.405Z,0.50
2018-12-19T16:01:57.880Z,0.67
2018-12-19T16:04:26.386Z,0.50
2018-12-19T16:06:54.897Z,1.13
2018-12-19T16:09:23.394Z,2.20
2018-12-19T16:11:51.986Z,1.80
2018-12-19T16:14:20.470Z,2.20
2018-12-19T16:16:56.226Z,1.83
2018-12-19T16:19:24.711Z,1.90
2018-12-19T16:21:53.203Z,2.17
2018-12-19T16:24:21.778Z,2.10
2018-12-19T16:26:50.301Z,1.63
2018-12-19T16:29:18.772Z,3.27
2018-12-19T16:31:47.281Z,2.03
2018-12-19T16:34:15.744Z,1.93
2018-12-19T16:36:44.268Z,0.77
2018-12-19T16:39:13.006Z,1.03
2018-12-19T16:41:41.911Z,0.70
2018-12-19T16:44:10.838Z,1.23
2018-12-19T16:46:39.682Z,1.30
2018-12-19T16:49:08.542Z,1.27
2018-12-19T16:51:37.383Z,3.60
2018-12-19T16:54:06.271Z,2.30
2018-12-19T16:56:35.185Z,1.90
2018-12-19T16:59:04.155Z,2.13
2018-12-19T17:01:33.059Z,1.40
2018-12-19T17:04:01.890Z,1.90
2018-12-19T17:06:30.708Z,2.57
2018-12-19T17:08:59.692Z,3.23
2018-12-19T17:11:28.513Z,3.77
2018-12-19T17:13:57.434Z,3.50
2018-12-19T17:16:26.308Z,4.53
2018-12-19T17:18:55.119Z,4.30
2018-12-19T17:21:24.047Z,6.43
2018-12-19T17:23:52.905Z,3.03
2018-12-19T17:26:21.783Z,2.23
2018-12-19T17:28:50.596Z,1.70
2018-12-19T17:31:19.572Z,1.70
2018-12-19T17:33:48.435Z,1.03
2018-12-19T17:36:17.362Z,1.70
2018-12-19T17:38:46.420Z,1.73
2018-12-19T17:41:15.254Z,1.20
2018-12-19T17:43:44.174Z,1.60
2018-12-19T17:46:13.082Z,2.10
2018-12-19T17:48:41.934Z,6.00
2018-12-19T17:51:10.790Z,2.83
2018-12-19T17:53:39.667Z,1.60
2018-12-19T17:56:08.525Z,1.10
2018-12-19T17:58:37.394Z,1.53
2018-12-19T18:01:06.400Z,1.40
2018-12-19T18:03:35.270Z,0.90
2018-12-19T18:06:04.191Z,1.23
2018-12-19T18:08:33.038Z,1.43
2018-12-19T18:11:01.889Z,1.40
2018-12-19T18:13:30.755Z,1.10
2018-12-19T18:15:59.608Z,1.40
2018-12-19T18:18:28.551Z,1.10
2018-12-19T18:20:57.487Z,1.50
2018-12-19T18:23:26.376Z,1.80
2018-12-19T18:25:55.298Z,1.60
2018-12-19T18:28:24.188Z,1.30
2018-12-19T18:30:53.022Z,2.03
2018-12-19T18:33:22.175Z,1.57
2018-12-19T18:35:51.063Z,1.70
2018-12-19T18:38:19.982Z,1.40
2018-12-19T18:40:48.814Z,1.70
2018-12-19T18:43:17.745Z,1.60
2018-12-19T18:45:46.680Z,2.37
2018-12-19T18:48:15.514Z,2.33
2018-12-19T18:50:44.821Z,2.20
2018-12-19T18:53:13.675Z,2.03
2018-12-19T18:55:42.527Z,1.60
2018-12-19T18:58:11.436Z,1.40
2018-12-19T19:00:40.377Z,1.50
2018-12-19T19:03:09.347Z,1.53
2018-12-19T19:05:38.169Z,1.67
2018-12-19T19:08:07.188Z,1.93
2018-12-19T19:10:36.029Z,2.13
2018-12-19T19:13:04.827Z,2.23
2018-12-19T19:15:33.754Z,2.07
2018-12-19T19:18:02.724Z,1.60
2018-12-19T19:20:31.587Z,1.80
2018-12-19T19:23:00.445Z,1.50
2018-12-19T19:25:29.321Z,2.27
2018-12-19T19:27:58.185Z,2.40
2018-12-19T19:30:27.137Z,2.70
2018-12-19T19:32:56.098Z,1.90
2018-12-19T19:35:25.069Z,2.07
2018-12-19T19:37:53.898Z,2.57
2018-12-19T19:40:22.858Z,2.77
2018-12-19T19:42:51.699Z,2.00
2018-12-19T19:45:20.659Z,2.23
2018-12-19T19:47:49.565Z,2.70
2018-12-19T19:50:18.414Z,2.30
2018-12-19T19:52:47.220Z,3.57
2018-12-19T19:55:16.066Z,2.60
2018-12-19T19:57:44.886Z,3.07
2018-12-19T20:00:15.736Z,3.10
2018-12-19T20:02:44.536Z,3.17
2018-12-19T20:05:13.368Z,3.27
2018-12-19T20:07:42.162Z,3.33
2018-12-19T20:10:11.102Z,4.07
2018-12-19T20:12:39.925Z,2.30
2018-12-19T20:15:08.950Z,2.70
2018-12-19T20:17:37.770Z,3.07
2018-12-19T20:20:06.805Z,3.47
2018-12-19T20:22:35.637Z,3.10
2018-12-19T20:25:04.660Z,3.70
2018-12-19T20:27:33.445Z,2.77
2018-12-19T20:30:02.303Z,3.17
2018-12-19T20:32:31.101Z,2.93
2018-12-19T20:34:59.949Z,3.60
2018-12-19T20:37:28.768Z,3.23
2018-12-19T20:39:57.624Z,2.93
2018-12-19T20:42:26.490Z,3.13
2018-12-19T20:44:55.321Z,2.60
2018-12-19T20:47:24.162Z,3.60
2018-12-19T20:49:53.084Z,2.90
2018-12-19T20:52:21.980Z,2.43
2018-12-19T20:54:50.873Z,3.40
2018-12-19T20:57:19.795Z,3.13
2018-12-19T20:59:48.666Z,2.57
2018-12-19T21:02:17.548Z,2.47
2018-12-19T21:04:46.343Z,2.60
2018-12-19T21:07:15.285Z,2.80
2018-12-19T21:09:44.099Z,2.40
2018-12-19T21:12:13.001Z,2.07
2018-12-19T21:14:42.082Z,2.10
2018-12-19T21:17:16.306Z,1.50
2018-12-19T21:19:45.158Z,2.97
2018-12-19T21:22:13.998Z,2.00
2018-12-19T21:24:42.800Z,2.90
2018-12-19T21:27:11.757Z,1.90
2018-12-19T21:29:40.639Z,2.37
2018-12-19T21:32:09.508Z,2.50
2018-12-19T21:34:38.418Z,1.47
2018-12-19T21:37:07.410Z,2.70
2018-12-19T21:39:36.339Z,1.93
2018-12-19T21:42:05.214Z,1.20
2018-12-19T21:44:34.025Z,2.63
2018-12-19T21:47:02.870Z,1.40
2018-12-19T21:49:31.750Z,1.60
2018-12-19T21:52:00.653Z,1.50
2018-12-19T21:54:29.473Z,1.83
2018-12-19T21:56:58.054Z,1.20
2018-12-19T21:59:26.570Z,1.43
2018-12-19T22:01:55.132Z,2.20
2018-12-19T22:04:23.759Z,1.90
2018-12-19T22:06:52.366Z,1.30
2018-12-19T22:09:20.985Z,1.20
2018-12-19T22:11:49.496Z,1.00
2018-12-19T22:14:17.994Z,1.20
2018-12-19T22:16:52.065Z,1.30
2018-12-19T22:19:20.556Z,1.07
2018-12-19T22:21:49.049Z,1.60
2018-12-19T22:24:17.578Z,1.00
2018-12-19T22:26:46.070Z,1.10
2018-12-19T22:29:14.575Z,0.87
2018-12-19T22:31:43.097Z,1.27
2018-12-19T22:34:11.577Z,1.30
2018-12-19T22:36:40.054Z,1.37
2018-12-19T22:39:13.540Z,1.20
2018-12-19T22:41:42.446Z,0.90
2018-12-19T22:44:10.954Z,1.00
2018-12-19T22:46:39.454Z,1.40
2018-12-19T22:49:07.941Z,1.40
2018-12-19T22:51:36.586Z,1.13
2018-12-19T22:54:05.260Z,1.10
2018-12-19T22:56:33.791Z,1.00
2018-12-19T22:59:02.293Z,1.23
2018-12-19T23:01:36.440Z,1.47
2018-12-19T23:04:07.274Z,0.80
2018-12-19T23:06:35.879Z,1.50
2018-12-19T23:11:57.076Z,1.20
2018-12-19T23:14:25.601Z,1.60
2018-12-19T23:16:54.129Z,1.30
2018-12-19T23:19:22.708Z,1.00
2018-12-19T23:21:51.205Z,1.17
2018-12-19T23:30:02.364Z,1.27
2018-12-19T23:32:30.926Z,1.30
2018-12-19T23:34:59.789Z,1.70
2018-12-19T23:37:28.283Z,1.43
2018-12-19T23:39:56.876Z,1.30
2018-12-19T23:42:25.401Z,1.33
2018-12-19T23:44:53.885Z,1.00
2018-12-19T23:47:22.366Z,1.10
2018-12-19T23:49:50.906Z,1.10
2018-12-19T23:52:19.374Z,1.30
2018-12-19T23:54:47.828Z,1.17
2018-12-19T23:57:16.348Z,1.60
2018-12-19T23:59:45.054Z,1.17
